createdAt,value
2022-08-23T00:03:57.583Z,12.85
2022-08-23T00:08:59.317Z,12.81
2022-08-23T00:14:06.302Z,12.71
2022-08-23T00:19:10.509Z,12.55
2022-08-23T00:24:13.888Z,12.43
2022-08-23T00:29:15.893Z,12.42
2022-08-23T00:34:18.052Z,12.56
2022-08-23T00:39:20.654Z,12.29
2022-08-23T00:44:51.497Z,12.07
2022-08-23T00:50:04.254Z,11.97
2022-08-23T00:55:21.567Z,11.94
2022-08-23T01:00:23.754Z,12.12
2022-08-23T01:05:33.092Z,12.41
2022-08-23T01:10:43.291Z,12.71
2022-08-23T01:15:57.423Z,12.74
2022-08-23T01:21:13.449Z,12.58
2022-08-23T01:26:21.758Z,12.44
2022-08-23T01:31:25.212Z,12.29
2022-08-23T01:36:27.373Z,12.16
2022-08-23T01:41:29.283Z,12.03
2022-08-23T01:46:31.403Z,11.89
2022-08-23T01:51:33.513Z,11.74
2022-08-23T01:56:38.740Z,11.67
2022-08-23T02:01:47.395Z,11.63
2022-08-23T02:06:49.440Z,11.61
2022-08-23T02:11:55.436Z,11.52
2022-08-23T02:17:04.217Z,11.51
2022-08-23T02:22:08.501Z,11.41
2022-08-23T02:27:10.565Z,11.43
2022-08-23T02:32:17.893Z,11.61
2022-08-23T02:37:19.696Z,11.82
2022-08-23T02:42:21.700Z,12.08
2022-08-23T02:47:24.000Z,12.31
2022-08-23T02:52:42.142Z,12.52
2022-08-23T02:57:44.050Z,12.62
2022-08-23T03:02:47.902Z,12.78
2022-08-23T03:07:49.582Z,12.90
2022-08-23T03:12:51.535Z,12.92
2022-08-23T03:17:54.066Z,13.00
2022-08-23T03:22:56.186Z,13.05
2022-08-23T03:28:04.739Z,13.12
2022-08-23T03:33:07.781Z,13.22
2022-08-23T03:38:09.722Z,13.28
2022-08-23T03:43:11.796Z,13.28
2022-08-23T03:48:13.711Z,13.38
2022-08-23T03:53:16.373Z,13.46
2022-08-23T03:58:21.585Z,13.53
2022-08-23T04:03:23.465Z,13.63
2022-08-23T04:08:39.585Z,13.76
2022-08-23T04:13:43.023Z,13.83
2022-08-23T04:18:46.452Z,13.89
2022-08-23T04:23:50.452Z,13.97
2022-08-23T04:28:52.215Z,14.06
2022-08-23T04:33:55.615Z,14.22
2022-08-23T04:38:58.866Z,14.36
2022-08-23T04:44:00.864Z,14.39
2022-08-23T04:49:04.335Z,14.48
2022-08-23T04:54:07.827Z,14.64
2022-08-23T04:59:16.278Z,14.62
2022-08-23T05:04:19.778Z,14.63
2022-08-23T05:09:21.552Z,14.65
2022-08-23T05:14:24.076Z,14.69
2022-08-23T05:19:26.266Z,14.71
2022-08-23T05:24:28.656Z,14.71
2022-08-23T05:29:30.709Z,14.72
2022-08-23T05:34:32.402Z,14.70
2022-08-23T05:39:38.412Z,14.73
2022-08-23T05:44:42.647Z,14.76
2022-08-23T05:49:46.133Z,14.69
2022-08-23T05:54:48.231Z,14.80
2022-08-23T06:00:13.395Z,15.03
2022-08-23T06:05:21.907Z,15.11
2022-08-23T06:10:26.035Z,15.14
2022-08-23T06:15:43.738Z,15.06
2022-08-23T06:20:45.910Z,15.18
2022-08-23T06:25:54.789Z,15.19
2022-08-23T06:30:57.294Z,15.30
2022-08-23T06:36:06.265Z,15.35
2022-08-23T06:41:34.837Z,15.65
2022-08-23T06:46:57.522Z,16.09
2022-08-23T06:52:01.445Z,16.48
2022-08-23T06:57:25.688Z,16.82
2022-08-23T07:02:57.527Z,16.88
2022-08-23T07:08:18.323Z,16.93
2022-08-23T07:13:19.967Z,17.05
2022-08-23T07:18:21.737Z,17.20
2022-08-23T07:23:23.568Z,17.40
2022-08-23T07:28:25.833Z,17.67
2022-08-23T07:33:31.719Z,18.12
2022-08-23T07:38:42.776Z,18.50
2022-08-23T07:43:44.933Z,18.80
2022-08-23T07:48:54.431Z,18.92
2022-08-23T07:54:21.255Z,19.22
2022-08-23T07:59:43.207Z,19.16
2022-08-23T08:05:17.296Z,18.73
2022-08-23T08:10:21.709Z,18.66
2022-08-23T08:15:24.373Z,18.62
2022-08-23T08:20:35.830Z,18.61
2022-08-23T08:26:06.088Z,19.36
2022-08-23T08:31:09.665Z,19.87
2022-08-23T08:36:33.686Z,20.29
2022-08-23T08:42:07.134Z,20.99
2022-08-23T08:47:17.345Z,20.90
2022-08-23T08:52:32.072Z,20.92
2022-08-23T08:57:44.675Z,21.40
2022-08-23T09:02:46.690Z,22.08
2022-08-23T09:08:30.276Z,23.15
2022-08-23T09:14:07.500Z,23.23
2022-08-23T09:19:09.876Z,23.02
2022-08-23T09:24:13.480Z,22.88
2022-08-23T09:29:31.466Z,22.39
2022-08-23T09:34:36.298Z,22.24
2022-08-23T09:39:49.711Z,22.05
2022-08-23T09:44:54.644Z,21.92
2022-08-23T09:50:08.505Z,22.07
2022-08-23T09:55:26.978Z,21.28
2022-08-23T10:00:36.271Z,21.42
2022-08-23T10:05:41.351Z,22.04
2022-08-23T10:10:54.920Z,22.89
2022-08-23T10:16:06.426Z,22.19
2022-08-23T10:21:23.950Z,21.91
2022-08-23T10:26:31.896Z,22.56
2022-08-23T10:32:08.430Z,23.49
2022-08-23T10:37:51.416Z,23.66
2022-08-23T10:42:57.128Z,24.07
2022-08-23T10:48:14.285Z,23.17
2022-08-23T10:53:19.377Z,22.89
2022-08-23T10:58:26.044Z,22.64
2022-08-23T11:03:50.013Z,22.12
2022-08-23T11:09:15.163Z,22.01
2022-08-23T11:14:36.561Z,22.27
2022-08-23T11:20:01.498Z,22.18
2022-08-23T11:25:26.005Z,21.95
2022-08-23T11:30:37.178Z,21.84
2022-08-23T11:35:53.641Z,22.51
2022-08-23T11:40:59.912Z,23.61
2022-08-23T11:46:27.974Z,23.19
2022-08-23T11:52:10.644Z,22.99
2022-08-23T11:57:48.382Z,23.02
2022-08-23T12:03:04.639Z,22.55
2022-08-23T12:08:07.048Z,22.09
2022-08-23T12:13:21.210Z,21.44
2022-08-23T12:18:25.226Z,21.21
2022-08-23T12:23:28.803Z,21.14
2022-08-23T12:28:41.100Z,20.99
2022-08-23T12:34:01.326Z,21.03
2022-08-23T12:39:41.803Z,21.42
2022-08-23T12:44:45.863Z,21.88
2022-08-23T12:49:58.832Z,22.63
2022-08-23T12:55:01.322Z,23.60
2022-08-23T13:00:17.358Z,23.88
2022-08-23T13:05:44.071Z,23.94
2022-08-23T13:10:48.191Z,23.64
2022-08-23T13:15:57.204Z,23.80
2022-08-23T13:21:23.593Z,24.55
2022-08-23T13:26:35.999Z,25.43
2022-08-23T13:32:03.280Z,25.71
2022-08-23T13:37:29.436Z,25.29
2022-08-23T13:42:48.499Z,25.53
2022-08-23T13:48:10.941Z,24.49
2022-08-23T13:53:15.212Z,23.63
2022-08-23T13:58:29.651Z,22.78
2022-08-23T14:03:32.912Z,22.67
2022-08-23T14:08:34.759Z,22.79
2022-08-23T14:13:37.840Z,22.86
2022-08-23T14:19:16.540Z,23.02
2022-08-23T14:24:01.725Z,22.82
2022-08-23T14:29:04.365Z,23.30
2022-08-23T14:34:07.598Z,26.44
2022-08-23T14:39:11.606Z,32.12
2022-08-23T14:44:17.214Z,34.15
2022-08-23T14:49:20.764Z,33.58
2022-08-23T14:54:25.809Z,30.38
2022-08-23T14:59:27.792Z,28.44
2022-08-23T15:04:34.406Z,26.91
2022-08-23T15:09:36.872Z,25.22
2022-08-23T15:14:38.742Z,23.82
2022-08-23T15:19:40.730Z,22.88
2022-08-23T15:24:42.589Z,22.30
2022-08-23T15:29:44.543Z,22.16
2022-08-23T15:34:46.586Z,22.75
2022-08-23T15:39:49.736Z,23.43
2022-08-23T15:44:51.637Z,23.79
2022-08-23T15:49:54.072Z,23.38
2022-08-23T15:54:55.933Z,23.27
2022-08-23T15:59:59.044Z,23.42
2022-08-23T16:05:01.310Z,24.19
2022-08-23T16:10:06.634Z,24.05
2022-08-23T16:15:08.938Z,23.76
2022-08-23T16:20:10.956Z,23.92
2022-08-23T16:25:12.817Z,23.70
2022-08-23T16:30:15.503Z,22.99
2022-08-23T16:35:18.440Z,22.53
2022-08-23T16:40:20.954Z,22.23
2022-08-23T16:45:26.112Z,22.20
2022-08-23T16:50:28.674Z,22.14
2022-08-23T16:55:30.537Z,22.01
2022-08-23T17:00:32.716Z,21.81
2022-08-23T17:05:34.907Z,21.45
2022-08-23T17:10:36.820Z,21.14
2022-08-23T17:15:38.814Z,21.02
2022-08-23T17:20:40.736Z,20.96
2022-08-23T17:25:47.781Z,20.77
2022-08-23T17:30:50.021Z,20.39
2022-08-23T17:35:51.933Z,20.19
2022-08-23T17:40:54.999Z,19.90
2022-08-23T17:45:56.868Z,19.73
2022-08-23T17:51:00.234Z,19.64
2022-08-23T17:56:02.204Z,19.46
2022-08-23T18:01:08.272Z,19.29
2022-08-23T18:06:16.737Z,19.14
2022-08-23T18:11:19.189Z,19.04
2022-08-23T18:16:21.196Z,18.95
2022-08-23T18:21:27.944Z,18.89
2022-08-23T18:26:51.734Z,18.79
2022-08-23T18:31:53.808Z,18.70
2022-08-23T18:36:56.854Z,18.62
2022-08-23T18:42:03.882Z,18.45
2022-08-23T18:47:05.804Z,18.26
2022-08-23T18:52:08.634Z,18.09
2022-08-23T18:57:15.623Z,17.96
2022-08-23T19:02:18.453Z,17.86
2022-08-23T19:07:20.413Z,17.57
2022-08-23T19:12:22.364Z,17.31
2022-08-23T19:17:24.228Z,17.06
2022-08-23T19:22:26.321Z,16.87
2022-08-23T19:27:28.178Z,16.75
2022-08-23T19:32:32.432Z,16.67
2022-08-23T19:37:34.726Z,16.52
2022-08-23T19:42:39.258Z,16.37
2022-08-23T19:47:41.950Z,16.30
2022-08-23T19:52:43.870Z,16.19
2022-08-23T19:57:45.838Z,16.15
2022-08-23T20:02:48.338Z,16.07
2022-08-23T20:07:50.130Z,15.93
2022-08-23T20:12:51.977Z,15.85
2022-08-23T20:17:54.859Z,15.75
2022-08-23T20:23:15.518Z,15.71
2022-08-23T20:28:17.622Z,15.72
2022-08-23T20:33:19.568Z,15.75
2022-08-23T20:38:24.442Z,15.85
2022-08-23T20:43:39.044Z,16.02
2022-08-23T20:48:40.863Z,16.10
2022-08-23T20:53:42.759Z,16.06
2022-08-23T20:58:45.486Z,16.07
2022-08-23T21:03:49.607Z,16.06
2022-08-23T21:08:53.473Z,16.10
2022-08-23T21:13:57.267Z,16.11
2022-08-23T21:18:59.348Z,16.14
2022-08-23T21:24:03.104Z,16.17
2022-08-23T21:29:05.866Z,16.18
2022-08-23T21:34:08.449Z,16.19
2022-08-23T21:39:10.436Z,16.22
2022-08-23T21:44:21.225Z,16.18
2022-08-23T21:49:23.412Z,16.19
2022-08-23T21:54:25.203Z,16.17
2022-08-23T21:59:27.127Z,16.18
2022-08-23T22:04:29.561Z,16.17
2022-08-23T22:09:31.730Z,16.13
2022-08-23T22:14:33.983Z,16.10
2022-08-23T22:19:35.951Z,16.06
2022-08-23T22:24:38.077Z,16.01
2022-08-23T22:29:40.561Z,15.97
2022-08-23T22:34:44.658Z,15.93
2022-08-23T22:39:46.625Z,15.88
2022-08-23T22:44:48.551Z,15.80
2022-08-23T22:49:50.391Z,15.61
2022-08-23T22:54:52.342Z,15.47
2022-08-23T22:59:55.026Z,15.38
2022-08-23T23:04:57.292Z,15.36
2022-08-23T23:09:59.133Z,15.35
2022-08-23T23:15:01.027Z,15.25
2022-08-23T23:20:22.765Z,15.10
2022-08-23T23:25:24.654Z,14.96
2022-08-23T23:30:26.742Z,14.78
2022-08-23T23:35:29.185Z,14.60
2022-08-23T23:40:31.746Z,14.47
2022-08-23T23:45:34.205Z,14.34
2022-08-23T23:50:39.738Z,14.32
2022-08-23T23:55:47.897Z,14.50
